createdAt,value
2019-06-26T00:00:03.444Z,7.37
2019-06-26T00:00:40.533Z,7.05
2019-06-26T00:01:17.486Z,7.30
2019-06-26T00:01:53.633Z,6.45
2019-06-26T00:02:30.619Z,8.28
2019-06-26T00:03:07.582Z,8.28
2019-06-26T00:03:43.607Z,8.33
2019-06-26T00:04:20.699Z,7.10
2019-06-26T00:04:57.688Z,6.55
2019-06-26T00:05:34.291Z,8.00
2019-06-26T00:06:10.943Z,7.10
2019-06-26T00:06:48.000Z,6.70
2019-06-26T00:07:24.455Z,7.58
2019-06-26T00:08:01.686Z,6.95
2019-06-26T00:08:38.494Z,8.05
2019-06-26T00:09:14.525Z,8.48
2019-06-26T00:09:52.208Z,7.50
2019-06-26T00:10:29.319Z,7.35
2019-06-26T00:11:05.640Z,9.15
2019-06-26T00:11:42.591Z,6.83
2019-06-26T00:12:19.871Z,7.03
2019-06-26T00:12:56.245Z,6.45
2019-06-26T00:13:32.867Z,6.95
2019-06-26T00:14:09.584Z,6.85
2019-06-26T00:14:46.047Z,6.45
2019-06-26T00:15:22.978Z,7.35
2019-06-26T00:16:00.029Z,8.20
2019-06-26T00:16:36.667Z,7.15
2019-06-26T00:17:14.046Z,6.92
2019-06-26T00:17:50.697Z,7.70
2019-06-26T00:18:26.737Z,7.37
2019-06-26T00:19:03.367Z,6.80
2019-06-26T00:19:40.931Z,7.00
2019-06-26T00:20:17.655Z,6.97
2019-06-26T00:20:54.681Z,6.55
2019-06-26T00:21:31.701Z,8.55
2019-06-26T00:22:07.998Z,7.00
2019-06-26T00:22:44.977Z,7.53
2019-06-26T00:23:21.598Z,7.37
2019-06-26T00:23:58.457Z,6.83
2019-06-26T00:24:35.078Z,6.47
2019-06-26T00:25:11.884Z,7.45
2019-06-26T00:25:48.023Z,6.50
2019-06-26T00:26:25.695Z,6.00
2019-06-26T00:27:03.066Z,6.40
2019-06-26T00:27:39.726Z,6.83
2019-06-26T00:28:17.080Z,7.35
2019-06-26T00:28:53.797Z,6.85
2019-06-26T00:29:29.905Z,6.55
2019-06-26T00:30:08.065Z,6.25
2019-06-26T00:30:44.870Z,7.05
2019-06-26T00:31:20.927Z,6.62
2019-06-26T00:31:57.542Z,7.60
2019-06-26T00:32:34.789Z,8.23
2019-06-26T00:33:10.828Z,8.53
2019-06-26T00:33:47.471Z,8.83
2019-06-26T00:34:24.842Z,6.80
2019-06-26T00:35:00.959Z,6.62
2019-06-26T00:35:37.691Z,7.08
2019-06-26T00:36:14.792Z,6.50
2019-06-26T00:36:50.860Z,7.90
2019-06-26T00:37:27.877Z,6.87
2019-06-26T00:38:04.564Z,6.65
2019-06-26T00:38:40.601Z,6.72
2019-06-26T00:39:17.564Z,7.45
2019-06-26T00:39:54.738Z,6.17
2019-06-26T00:40:31.275Z,7.40
2019-06-26T00:41:07.944Z,6.83
2019-06-26T00:41:45.033Z,7.90
2019-06-26T00:42:21.358Z,7.37
2019-06-26T00:42:58.379Z,8.33
2019-06-26T00:43:42.404Z,8.08
2019-06-26T00:44:13.881Z,6.95
2019-06-26T00:44:50.768Z,7.92
2019-06-26T00:45:27.392Z,6.92
2019-06-26T00:46:03.755Z,7.33
2019-06-26T00:46:40.870Z,6.60
2019-06-26T00:47:17.468Z,9.63
2019-06-26T00:47:53.506Z,7.33
2019-06-26T00:48:30.119Z,6.37
2019-06-26T00:49:06.789Z,9.48
2019-06-26T00:49:42.813Z,6.37
2019-06-26T00:50:19.773Z,6.35
2019-06-26T00:50:56.495Z,6.53
2019-06-26T00:51:32.655Z,6.83
2019-06-26T00:52:09.414Z,6.50
2019-06-26T00:52:46.032Z,7.40
2019-06-26T00:53:22.478Z,6.75
2019-06-26T00:53:59.441Z,9.45
2019-06-26T00:54:36.066Z,7.15
2019-06-26T00:55:12.651Z,8.23
2019-06-26T00:55:49.268Z,6.58
2019-06-26T00:56:26.780Z,7.42
2019-06-26T00:57:03.054Z,6.70
2019-06-26T00:57:39.674Z,8.35
2019-06-26T00:58:16.901Z,8.75
2019-06-26T00:58:53.192Z,7.00
2019-06-26T00:59:30.406Z,6.70
2019-06-26T01:00:10.262Z,7.75
2019-06-26T01:00:50.388Z,7.17
2019-06-26T01:01:27.023Z,6.40
2019-06-26T01:02:04.272Z,6.40
2019-06-26T01:02:40.305Z,7.22
2019-06-26T01:03:17.217Z,7.95
2019-06-26T01:03:55.408Z,6.58
2019-06-26T01:04:35.594Z,6.87
2019-06-26T01:05:12.899Z,6.58
2019-06-26T01:05:49.939Z,6.87
2019-06-26T01:06:44.884Z,6.87
2019-06-26T01:07:21.888Z,7.47
2019-06-26T01:07:58.474Z,6.80
2019-06-26T01:08:35.240Z,8.68
2019-06-26T01:09:11.895Z,6.78
2019-06-26T01:09:48.936Z,6.97
2019-06-26T01:10:25.118Z,8.28
2019-06-26T01:11:02.078Z,6.50
2019-06-26T01:11:39.009Z,8.08
2019-06-26T01:12:15.395Z,7.35
2019-06-26T01:12:52.128Z,7.53
2019-06-26T01:13:29.211Z,7.72
2019-06-26T01:14:05.792Z,6.95
2019-06-26T01:14:42.411Z,6.12
2019-06-26T01:15:19.243Z,6.83
2019-06-26T01:15:55.272Z,6.90
2019-06-26T01:16:32.484Z,8.20
2019-06-26T01:17:09.293Z,6.70
2019-06-26T01:17:45.357Z,6.45
2019-06-26T01:18:22.840Z,7.85
2019-06-26T01:18:59.801Z,6.78
2019-06-26T01:19:37.117Z,7.12
2019-06-26T01:20:14.043Z,8.70
2019-06-26T01:20:50.707Z,7.10
2019-06-26T01:21:27.486Z,8.93
2019-06-26T01:22:04.556Z,7.30
2019-06-26T01:22:41.525Z,7.60
2019-06-26T01:23:17.682Z,7.37
2019-06-26T01:23:54.297Z,7.65
2019-06-26T01:24:31.392Z,6.67
2019-06-26T01:25:07.485Z,7.03
2019-06-26T01:25:44.288Z,6.83
2019-06-26T01:26:21.304Z,7.08
2019-06-26T01:26:57.367Z,6.90
2019-06-26T01:27:34.025Z,9.90
2019-06-26T01:28:11.069Z,7.10
2019-06-26T01:28:47.612Z,7.08
2019-06-26T01:29:24.323Z,6.78
2019-06-26T01:30:01.363Z,8.88
2019-06-26T01:30:37.878Z,7.33
2019-06-26T01:31:14.855Z,6.92
2019-06-26T01:31:51.511Z,8.00
2019-06-26T01:32:28.306Z,6.95
2019-06-26T01:33:05.014Z,6.85
2019-06-26T01:33:41.980Z,7.78
2019-06-26T01:34:18.382Z,7.22
2019-06-26T01:34:55.696Z,7.08
2019-06-26T01:35:33.059Z,7.47
2019-06-26T01:36:09.153Z,9.70
2019-06-26T01:36:45.812Z,6.72
2019-06-26T01:37:23.474Z,6.90
2019-06-26T01:37:59.979Z,6.55
2019-06-26T01:38:36.704Z,6.83
2019-06-26T01:39:13.377Z,7.58
2019-06-26T01:39:49.421Z,7.50
2019-06-26T01:40:26.059Z,6.78
2019-06-26T01:41:03.608Z,7.92
2019-06-26T01:41:40.407Z,8.05
2019-06-26T01:42:17.035Z,7.47
2019-06-26T01:42:53.722Z,6.85
2019-06-26T01:43:30.902Z,7.22
2019-06-26T01:44:14.605Z,6.85
2019-06-26T01:44:46.577Z,9.45
2019-06-26T01:45:23.111Z,6.75
2019-06-26T01:45:59.746Z,6.90
2019-06-26T01:46:36.401Z,6.95
2019-06-26T01:47:12.486Z,6.55
2019-06-26T01:47:49.116Z,14.05
2019-06-26T01:48:26.260Z,7.08
2019-06-26T01:49:02.668Z,8.23
2019-06-26T01:49:39.590Z,7.97
2019-06-26T01:50:16.238Z,7.42
2019-06-26T01:50:52.287Z,7.45
2019-06-26T01:51:29.070Z,7.67
2019-06-26T01:52:05.929Z,7.05
2019-06-26T01:52:41.982Z,7.22
2019-06-26T01:53:19.040Z,6.45
2019-06-26T01:53:56.442Z,9.08
2019-06-26T01:54:32.520Z,6.78
2019-06-26T01:55:09.758Z,6.85
2019-06-26T01:55:46.387Z,6.70
2019-06-26T01:56:22.763Z,7.03
2019-06-26T01:56:59.419Z,7.28
2019-06-26T01:57:36.459Z,8.63
2019-06-26T01:58:12.788Z,7.60
2019-06-26T01:58:49.448Z,7.72
2019-06-26T01:59:26.436Z,7.42
2019-06-26T02:00:02.594Z,6.33
2019-06-26T02:00:39.410Z,6.67
2019-06-26T02:01:16.068Z,6.75
2019-06-26T02:01:52.167Z,7.55
2019-06-26T02:02:28.822Z,6.28
2019-06-26T02:03:05.501Z,6.85
2019-06-26T02:03:41.604Z,7.33
2019-06-26T02:04:18.556Z,6.60
2019-06-26T02:04:55.263Z,7.15
2019-06-26T02:05:31.390Z,7.87
2019-06-26T02:06:08.059Z,7.12
2019-06-26T02:06:45.543Z,6.47
2019-06-26T02:07:21.584Z,6.75
2019-06-26T02:07:58.321Z,6.80
2019-06-26T02:08:34.953Z,7.00
2019-06-26T02:09:11.357Z,7.00
2019-06-26T02:09:47.976Z,7.60
2019-06-26T02:10:24.880Z,6.53
2019-06-26T02:11:00.946Z,6.95
2019-06-26T02:11:38.303Z,8.05
2019-06-26T02:12:15.272Z,7.55
2019-06-26T02:12:51.309Z,6.67
2019-06-26T02:13:27.937Z,7.10
2019-06-26T02:14:05.074Z,6.87
2019-06-26T02:14:41.958Z,8.85
2019-06-26T02:15:18.869Z,7.20
2019-06-26T02:15:55.492Z,7.55
2019-06-26T02:16:31.512Z,6.72
2019-06-26T02:17:08.282Z,7.05
2019-06-26T02:17:45.643Z,7.42
2019-06-26T02:18:47.524Z,6.42
2019-06-26T02:19:24.565Z,6.72
2019-06-26T02:20:02.000Z,6.70
2019-06-26T02:20:38.044Z,7.17
2019-06-26T02:21:15.422Z,8.70
2019-06-26T02:21:52.009Z,7.92
2019-06-26T02:22:28.436Z,6.80
2019-06-26T02:23:05.511Z,7.22
2019-06-26T02:23:42.436Z,7.22
2019-06-26T02:24:18.497Z,6.75
2019-06-26T02:24:55.100Z,7.30
2019-06-26T02:25:32.134Z,7.03
2019-06-26T02:26:08.167Z,8.20
2019-06-26T02:26:45.174Z,7.00
2019-06-26T02:27:22.110Z,7.28
2019-06-26T02:27:58.133Z,7.15
2019-06-26T02:28:34.766Z,8.78
2019-06-26T02:29:11.701Z,7.58
2019-06-26T02:29:47.792Z,7.58
2019-06-26T02:30:24.402Z,7.30
2019-06-26T02:31:01.023Z,10.23
2019-06-26T02:31:37.350Z,7.28
2019-06-26T02:32:13.983Z,6.97
2019-06-26T02:32:50.607Z,6.45
2019-06-26T02:33:26.738Z,7.53
2019-06-26T02:34:03.862Z,7.15
2019-06-26T02:34:40.573Z,8.13
2019-06-26T02:35:17.003Z,8.90
2019-06-26T02:35:53.618Z,7.12
2019-06-26T02:36:30.860Z,7.40
2019-06-26T02:37:07.261Z,6.67
2019-06-26T02:37:43.907Z,8.43
2019-06-26T02:38:20.526Z,8.43
2019-06-26T02:38:56.562Z,7.72
2019-06-26T02:39:33.182Z,7.87
2019-06-26T02:40:11.076Z,7.55
2019-06-26T02:40:47.126Z,8.55
2019-06-26T02:41:24.049Z,7.42
2019-06-26T02:42:00.726Z,10.03
2019-06-26T02:42:36.902Z,8.13
2019-06-26T02:43:14.322Z,9.13
2019-06-26T02:43:51.149Z,9.08
2019-06-26T02:44:27.213Z,9.00
2019-06-26T02:45:04.410Z,9.85
2019-06-26T02:45:41.490Z,11.03
2019-06-26T02:46:17.637Z,10.72
2019-06-26T02:46:54.651Z,10.30
2019-06-26T02:47:31.305Z,11.05
2019-06-26T02:48:07.383Z,10.40
2019-06-26T02:48:44.403Z,11.33
2019-06-26T02:49:21.064Z,11.70
2019-06-26T02:49:57.231Z,11.05
2019-06-26T02:50:33.997Z,11.38
2019-06-26T02:51:10.662Z,10.85
2019-06-26T02:51:47.216Z,12.50
2019-06-26T02:52:23.911Z,11.97
2019-06-26T02:53:00.544Z,11.65
2019-06-26T02:53:36.637Z,10.90
2019-06-26T02:54:13.279Z,11.85
2019-06-26T02:54:50.597Z,12.05
2019-06-26T02:55:27.090Z,11.10
2019-06-26T02:56:03.825Z,12.20
2019-06-26T02:56:40.783Z,12.73
2019-06-26T02:57:17.138Z,12.13
2019-06-26T02:57:53.807Z,12.98
2019-06-26T02:58:30.454Z,14.33
2019-06-26T02:59:07.018Z,12.95
2019-06-26T02:59:43.689Z,12.28
2019-06-26T03:00:20.790Z,11.63
2019-06-26T03:00:57.225Z,13.50
2019-06-26T03:01:34.186Z,12.07
2019-06-26T03:02:10.888Z,11.55
2019-06-26T03:02:46.961Z,12.28
2019-06-26T03:03:23.603Z,12.20
2019-06-26T03:04:00.651Z,14.90
2019-06-26T03:04:37.021Z,15.38
2019-06-26T03:05:13.653Z,12.63
2019-06-26T03:05:50.310Z,12.90
2019-06-26T03:06:26.612Z,17.87
2019-06-26T03:07:03.681Z,13.65
2019-06-26T03:07:40.361Z,18.55
2019-06-26T03:08:16.488Z,12.37
2019-06-26T03:08:53.138Z,12.50
2019-06-26T03:09:29.798Z,13.10
2019-06-26T03:10:07.011Z,13.22
2019-06-26T03:10:43.659Z,14.13
2019-06-26T03:11:20.761Z,13.65
2019-06-26T03:11:56.811Z,13.68
2019-06-26T03:12:33.820Z,14.25
2019-06-26T03:13:10.904Z,13.20
2019-06-26T03:13:47.220Z,16.32
2019-06-26T03:14:23.942Z,14.95
2019-06-26T03:15:08.986Z,15.90
2019-06-26T03:15:38.960Z,14.75
2019-06-26T03:16:15.619Z,16.00
2019-06-26T03:16:53.071Z,15.53
2019-06-26T03:17:29.152Z,13.32
2019-06-26T03:18:06.036Z,13.65
2019-06-26T03:18:42.687Z,13.65
2019-06-26T03:19:19.041Z,14.78
2019-06-26T03:19:55.700Z,15.03
2019-06-26T03:20:35.447Z,14.60
2019-06-26T03:21:12.505Z,16.12
2019-06-26T03:21:49.522Z,13.28
2019-06-26T03:22:26.864Z,15.55
2019-06-26T03:23:02.929Z,15.28
2019-06-26T03:23:39.591Z,16.32
2019-06-26T03:24:16.235Z,13.30
2019-06-26T03:24:52.335Z,13.15
2019-06-26T03:25:29.073Z,13.50
2019-06-26T03:26:06.223Z,13.48
2019-06-26T03:26:42.321Z,11.83
2019-06-26T03:27:19.351Z,13.43
2019-06-26T03:27:56.247Z,12.30
2019-06-26T03:28:33.435Z,12.45
2019-06-26T03:29:10.102Z,11.35
2019-06-26T03:29:46.873Z,13.93
2019-06-26T03:30:23.417Z,11.35
2019-06-26T03:31:00.462Z,11.83
2019-06-26T03:31:37.133Z,12.20
2019-06-26T03:32:13.320Z,12.00
2019-06-26T03:32:49.955Z,11.18
2019-06-26T03:33:26.594Z,10.70
2019-06-26T03:34:02.679Z,12.95
2019-06-26T03:34:39.324Z,11.68
2019-06-26T03:35:16.296Z,11.70
2019-06-26T03:35:52.436Z,12.73
2019-06-26T03:36:29.083Z,12.20
2019-06-26T03:37:05.801Z,11.80
2019-06-26T03:37:42.415Z,11.40
2019-06-26T03:38:19.144Z,12.85
2019-06-26T03:38:55.895Z,11.43
2019-06-26T03:39:32.617Z,11.05
2019-06-26T03:40:10.016Z,10.78
2019-06-26T03:40:46.938Z,9.83
2019-06-26T03:41:23.716Z,12.23
2019-06-26T03:42:00.771Z,10.72
2019-06-26T03:42:37.747Z,11.30
2019-06-26T03:43:13.948Z,10.93
2019-06-26T03:43:50.590Z,11.10
2019-06-26T03:44:27.235Z,10.95
2019-06-26T03:45:03.352Z,12.25
2019-06-26T03:45:40.352Z,11.45
2019-06-26T03:46:16.983Z,10.28
2019-06-26T03:46:53.148Z,13.95
2019-06-26T03:47:30.124Z,10.78
2019-06-26T03:48:06.788Z,11.63
2019-06-26T03:48:43.197Z,10.72
2019-06-26T03:49:20.237Z,12.50
2019-06-26T03:49:56.909Z,11.95
2019-06-26T03:50:32.998Z,13.98
2019-06-26T03:51:13.747Z,11.50
2019-06-26T03:51:48.938Z,11.60
2019-06-26T03:52:25.043Z,11.35
2019-06-26T03:53:02.376Z,10.68
2019-06-26T03:53:39.164Z,11.65
2019-06-26T03:54:15.220Z,13.90
2019-06-26T03:54:52.071Z,10.63
2019-06-26T03:55:28.709Z,12.93
2019-06-26T03:56:05.352Z,11.20
2019-06-26T03:56:42.317Z,11.93
2019-06-26T03:57:19.697Z,11.40
2019-06-26T03:57:56.291Z,12.47
2019-06-26T03:58:33.577Z,11.65
2019-06-26T03:59:10.250Z,11.75
2019-06-26T03:59:46.306Z,11.85
2019-06-26T04:00:31.798Z,11.95
2019-06-26T04:01:08.862Z,12.25
2019-06-26T04:01:44.923Z,12.45
2019-06-26T04:02:22.318Z,13.43
2019-06-26T04:02:59.433Z,11.03
2019-06-26T04:03:35.507Z,11.10
2019-06-26T04:04:12.205Z,11.33
2019-06-26T04:04:49.793Z,12.25
2019-06-26T04:05:25.885Z,13.03
2019-06-26T04:06:02.913Z,10.90
2019-06-26T04:06:39.573Z,13.55
2019-06-26T04:07:15.621Z,12.05
2019-06-26T04:07:53.109Z,11.12
2019-06-26T04:08:29.811Z,13.10
2019-06-26T04:09:07.284Z,11.38
2019-06-26T04:09:44.643Z,10.45
2019-06-26T04:10:21.260Z,10.35
2019-06-26T04:10:57.341Z,10.10
2019-06-26T04:11:33.979Z,9.73
2019-06-26T04:12:10.644Z,11.57
2019-06-26T04:12:47.097Z,10.93
2019-06-26T04:13:23.737Z,10.30
2019-06-26T04:14:00.678Z,11.05
2019-06-26T04:14:37.083Z,10.53
2019-06-26T04:15:14.201Z,10.75
2019-06-26T04:15:51.175Z,10.98
2019-06-26T04:16:27.750Z,12.82
2019-06-26T04:17:04.419Z,15.18
2019-06-26T04:17:41.058Z,10.95
2019-06-26T04:18:17.425Z,12.15
2019-06-26T04:18:54.065Z,10.18
2019-06-26T04:19:30.743Z,11.22
2019-06-26T04:20:07.021Z,9.43
2019-06-26T04:20:43.632Z,10.13
2019-06-26T04:21:20.272Z,10.28
2019-06-26T04:21:56.323Z,10.45
2019-06-26T04:22:33.216Z,10.93
2019-06-26T04:23:09.816Z,9.85
2019-06-26T04:23:46.640Z,11.08
2019-06-26T04:24:23.274Z,9.70
2019-06-26T04:25:00.282Z,12.15
2019-06-26T04:25:38.275Z,11.93
2019-06-26T04:26:14.813Z,12.78
2019-06-26T04:26:51.792Z,13.30
2019-06-26T04:27:28.100Z,12.85
2019-06-26T04:28:06.427Z,12.82
2019-06-26T04:28:44.058Z,12.00
2019-06-26T04:29:20.390Z,12.58
2019-06-26T04:29:57.151Z,14.28
2019-06-26T04:30:33.778Z,9.13
2019-06-26T04:31:09.877Z,14.93
2019-06-26T04:31:46.499Z,9.60
2019-06-26T04:32:23.500Z,10.98
2019-06-26T04:32:59.928Z,10.90
2019-06-26T04:33:36.844Z,9.60
2019-06-26T04:34:13.477Z,9.70
2019-06-26T04:34:49.531Z,13.70
2019-06-26T04:35:26.617Z,9.15
2019-06-26T04:36:03.289Z,9.13
2019-06-26T04:36:39.328Z,10.43
2019-06-26T04:37:15.935Z,9.58
2019-06-26T04:37:52.673Z,8.75
2019-06-26T04:38:29.031Z,9.85
2019-06-26T04:39:07.397Z,12.33
2019-06-26T04:39:44.006Z,8.88
2019-06-26T04:40:20.779Z,10.65
2019-06-26T04:40:58.006Z,9.98
2019-06-26T04:41:34.664Z,9.83
2019-06-26T04:42:10.726Z,9.73
2019-06-26T04:42:47.790Z,11.20
2019-06-26T04:43:24.433Z,9.50
2019-06-26T04:44:00.552Z,9.98
2019-06-26T04:44:37.466Z,10.50
2019-06-26T04:45:15.504Z,10.00
2019-06-26T04:45:58.097Z,13.10
2019-06-26T04:46:29.907Z,9.70
2019-06-26T04:47:06.882Z,11.53
2019-06-26T04:47:42.962Z,10.28
2019-06-26T04:48:20.010Z,9.98
2019-06-26T04:48:56.645Z,9.10
2019-06-26T04:49:33.031Z,13.22
2019-06-26T04:50:11.290Z,9.18
2019-06-26T04:50:48.604Z,9.83
2019-06-26T04:51:24.644Z,10.13
2019-06-26T04:52:01.293Z,9.60
2019-06-26T04:52:38.406Z,10.08
2019-06-26T04:53:14.460Z,9.75
2019-06-26T04:53:51.105Z,10.28
2019-06-26T04:54:27.824Z,11.85
2019-06-26T04:55:04.053Z,9.25
2019-06-26T04:55:41.025Z,10.15
2019-06-26T04:56:17.666Z,12.90
2019-06-26T04:56:53.898Z,14.50
2019-06-26T04:57:30.576Z,10.55
2019-06-26T04:58:07.288Z,9.50
2019-06-26T04:58:43.316Z,9.80
2019-06-26T04:59:19.972Z,9.13
2019-06-26T04:59:56.597Z,9.50
2019-06-26T05:00:32.643Z,8.70
2019-06-26T05:01:10.070Z,12.00
2019-06-26T05:01:46.828Z,10.60
2019-06-26T05:02:22.963Z,11.78
2019-06-26T05:02:59.913Z,9.25
2019-06-26T05:03:36.577Z,10.90
2019-06-26T05:04:12.647Z,12.43
2019-06-26T05:04:49.285Z,9.80
2019-06-26T05:05:38.908Z,9.28
2019-06-26T05:06:03.814Z,9.33
2019-06-26T05:06:40.538Z,9.18
2019-06-26T05:07:17.464Z,8.50
2019-06-26T05:07:53.850Z,11.40
2019-06-26T05:08:30.920Z,9.63
2019-06-26T05:09:08.763Z,9.23
2019-06-26T05:09:45.094Z,13.93
2019-06-26T05:10:22.202Z,10.53
2019-06-26T05:10:58.838Z,10.48
2019-06-26T05:11:35.025Z,12.15
2019-06-26T05:12:11.647Z,9.40
2019-06-26T05:12:48.595Z,9.20
2019-06-26T05:13:25.015Z,10.18
2019-06-26T05:14:01.671Z,13.50
2019-06-26T05:14:38.846Z,9.95
2019-06-26T05:15:15.194Z,10.38
2019-06-26T05:15:52.229Z,11.68
2019-06-26T05:16:29.159Z,9.85
2019-06-26T05:17:05.502Z,12.10
2019-06-26T05:17:42.157Z,11.05
2019-06-26T05:18:18.806Z,10.00
2019-06-26T05:18:55.281Z,10.80
2019-06-26T05:19:32.288Z,12.07
2019-06-26T05:20:10.746Z,11.83
2019-06-26T05:20:47.248Z,9.30
2019-06-26T05:21:24.699Z,9.53
2019-06-26T05:22:01.377Z,10.00
2019-06-26T05:22:37.424Z,12.50
2019-06-26T05:23:14.082Z,12.18
2019-06-26T05:23:51.092Z,11.35
2019-06-26T05:24:28.028Z,13.68
2019-06-26T05:25:04.983Z,12.28
2019-06-26T05:25:42.089Z,14.23
2019-06-26T05:26:18.188Z,10.15
2019-06-26T05:26:54.804Z,9.65
2019-06-26T05:27:31.453Z,15.58
2019-06-26T05:28:08.563Z,9.60
2019-06-26T05:28:45.404Z,11.78
2019-06-26T05:29:22.164Z,10.48
2019-06-26T05:29:58.658Z,12.05
2019-06-26T05:30:36.081Z,9.80
2019-06-26T05:31:12.827Z,16.23
2019-06-26T05:31:49.192Z,12.40
2019-06-26T05:32:25.892Z,9.33
2019-06-26T05:33:03.048Z,9.23
2019-06-26T05:33:39.556Z,12.88
2019-06-26T05:34:16.285Z,11.00
2019-06-26T05:34:53.361Z,8.75
2019-06-26T05:35:29.843Z,9.28
2019-06-26T05:36:06.804Z,12.98
2019-06-26T05:36:43.421Z,9.58
2019-06-26T05:37:19.515Z,12.30
2019-06-26T05:37:56.533Z,14.03
2019-06-26T05:38:33.221Z,11.57
2019-06-26T05:39:09.299Z,10.05
2019-06-26T05:39:45.928Z,9.95
2019-06-26T05:40:22.685Z,9.58
2019-06-26T05:40:58.778Z,11.12
2019-06-26T05:41:35.430Z,11.05
2019-06-26T05:42:12.271Z,10.88
2019-06-26T05:42:48.775Z,11.08
2019-06-26T05:43:25.446Z,9.98
2019-06-26T05:44:02.548Z,18.35
2019-06-26T05:44:38.964Z,10.63
2019-06-26T05:45:16.186Z,9.85
2019-06-26T05:45:52.913Z,11.65
2019-06-26T05:46:31.382Z,9.85
2019-06-26T05:47:08.436Z,9.35
2019-06-26T05:47:45.406Z,9.88
2019-06-26T05:48:21.756Z,10.50
2019-06-26T05:48:58.370Z,9.70
2019-06-26T05:49:35.059Z,11.73
2019-06-26T05:50:11.871Z,9.00
2019-06-26T05:50:48.684Z,9.23
2019-06-26T05:51:25.315Z,11.60
2019-06-26T05:52:02.286Z,10.03
2019-06-26T05:52:42.218Z,10.03
2019-06-26T05:53:17.738Z,9.53
2019-06-26T05:53:53.905Z,10.43
2019-06-26T05:54:30.510Z,10.55
2019-06-26T05:55:07.770Z,9.73
2019-06-26T05:55:43.848Z,10.13
2019-06-26T05:56:20.513Z,10.25
2019-06-26T05:56:57.141Z,9.00
2019-06-26T05:57:33.596Z,9.53
2019-06-26T05:58:10.607Z,10.95
2019-06-26T05:58:47.334Z,8.70
2019-06-26T05:59:23.348Z,9.65
2019-06-26T06:00:00.370Z,10.15
2019-06-26T06:00:37.310Z,10.60
2019-06-26T06:01:13.310Z,8.95
2019-06-26T06:01:49.976Z,9.28
2019-06-26T06:02:26.639Z,11.30
2019-06-26T06:03:03.000Z,10.18
2019-06-26T06:03:39.604Z,8.05
2019-06-26T06:04:16.802Z,8.55
2019-06-26T06:04:53.226Z,8.30
2019-06-26T06:05:30.233Z,8.35
2019-06-26T06:06:07.041Z,13.38
2019-06-26T06:06:43.072Z,11.12
2019-06-26T06:07:20.482Z,11.35
2019-06-26T06:07:57.823Z,11.70
2019-06-26T06:08:33.905Z,10.13
2019-06-26T06:09:10.525Z,8.13
2019-06-26T06:09:47.393Z,10.38
2019-06-26T06:10:23.676Z,10.08
2019-06-26T06:11:00.855Z,9.10
2019-06-26T06:11:37.915Z,11.38
2019-06-26T06:12:14.189Z,12.40
2019-06-26T06:12:50.859Z,11.95
2019-06-26T06:13:27.496Z,13.50
2019-06-26T06:14:03.811Z,14.90
2019-06-26T06:14:40.462Z,10.40
2019-06-26T06:15:17.685Z,9.93
2019-06-26T06:15:54.271Z,11.25
2019-06-26T06:16:45.941Z,10.95
2019-06-26T06:17:09.377Z,8.93
2019-06-26T06:17:45.429Z,10.72
2019-06-26T06:18:22.049Z,12.30
2019-06-26T06:18:58.678Z,9.88
2019-06-26T06:19:34.749Z,13.83
2019-06-26T06:20:12.477Z,9.45
2019-06-26T06:20:49.374Z,10.03
2019-06-26T06:21:25.426Z,9.93
2019-06-26T06:22:02.087Z,12.10
2019-06-26T06:22:38.752Z,11.57
2019-06-26T06:23:14.860Z,10.85
2019-06-26T06:23:51.561Z,12.45
2019-06-26T06:24:28.192Z,12.98
2019-06-26T06:25:04.452Z,12.33
2019-06-26T06:25:41.436Z,17.70
2019-06-26T06:26:18.086Z,10.32
2019-06-26T06:26:54.195Z,10.30
2019-06-26T06:27:30.856Z,11.70
2019-06-26T06:28:07.514Z,9.58
2019-06-26T06:28:43.508Z,11.22
2019-06-26T06:29:20.107Z,9.88
2019-06-26T06:29:56.744Z,11.68
2019-06-26T06:30:32.771Z,13.05
2019-06-26T06:31:09.418Z,10.98
2019-06-26T06:31:46.000Z,9.80
2019-06-26T06:32:22.669Z,9.43
2019-06-26T06:32:59.356Z,9.28
2019-06-26T06:33:35.981Z,12.68
2019-06-26T06:34:12.776Z,11.03
2019-06-26T06:34:49.389Z,9.78
2019-06-26T06:35:26.090Z,11.95
2019-06-26T06:36:02.483Z,8.60
2019-06-26T06:36:39.513Z,11.75
2019-06-26T06:37:16.253Z,9.53
2019-06-26T06:37:53.232Z,8.38
2019-06-26T06:38:29.826Z,11.85
2019-06-26T06:39:08.005Z,11.00
2019-06-26T06:39:44.058Z,9.53
2019-06-26T06:40:20.632Z,9.90
2019-06-26T06:40:57.226Z,8.98
2019-06-26T06:41:33.235Z,9.10
2019-06-26T06:42:09.831Z,10.75
2019-06-26T06:42:46.455Z,9.88
2019-06-26T06:43:22.468Z,10.15
2019-06-26T06:43:59.649Z,8.70
2019-06-26T06:44:36.309Z,15.98
2019-06-26T06:45:12.613Z,10.28
2019-06-26T06:45:50.090Z,9.55
2019-06-26T06:46:27.058Z,9.18
2019-06-26T06:47:04.545Z,9.18
2019-06-26T06:47:42.037Z,10.60
2019-06-26T06:48:18.650Z,8.60
2019-06-26T06:48:54.650Z,8.90
2019-06-26T06:49:31.243Z,7.95
2019-06-26T06:50:08.039Z,9.38
2019-06-26T06:50:44.052Z,11.40
2019-06-26T06:51:20.795Z,12.60
2019-06-26T06:51:57.416Z,8.83
2019-06-26T06:52:33.901Z,10.05
2019-06-26T06:53:11.472Z,12.15
2019-06-26T06:53:48.448Z,12.40
2019-06-26T06:54:25.529Z,8.48
2019-06-26T06:55:02.174Z,12.50
2019-06-26T06:55:38.852Z,9.08
2019-06-26T06:56:15.508Z,12.40
2019-06-26T06:56:52.299Z,8.68
2019-06-26T06:57:29.337Z,10.23
2019-06-26T06:58:05.483Z,11.78
2019-06-26T06:58:42.655Z,9.18
2019-06-26T06:59:19.656Z,12.33
2019-06-26T06:59:55.706Z,15.30
2019-06-26T07:00:33.735Z,8.88
2019-06-26T07:01:10.473Z,9.33
2019-06-26T07:01:46.481Z,12.15
2019-06-26T07:02:23.762Z,11.55
2019-06-26T07:03:00.567Z,10.60
2019-06-26T07:03:36.674Z,10.72
2019-06-26T07:04:13.392Z,8.33
2019-06-26T07:04:50.022Z,15.78
2019-06-26T07:05:26.087Z,10.85
2019-06-26T07:06:02.696Z,8.43
2019-06-26T07:06:39.340Z,14.47
2019-06-26T07:07:15.496Z,12.73
2019-06-26T07:07:52.493Z,13.68
2019-06-26T07:08:29.122Z,13.10
2019-06-26T07:09:06.841Z,15.72
2019-06-26T07:09:43.445Z,16.30
2019-06-26T07:10:20.051Z,10.50
2019-06-26T07:10:56.068Z,8.45
2019-06-26T07:11:33.554Z,10.65
2019-06-26T07:12:10.474Z,8.85
2019-06-26T07:12:46.753Z,10.05
2019-06-26T07:13:23.760Z,10.55
2019-06-26T07:14:00.668Z,11.83
2019-06-26T07:14:36.953Z,10.75
2019-06-26T07:15:16.200Z,10.43
2019-06-26T07:15:52.852Z,12.18
2019-06-26T07:16:28.929Z,10.98
2019-06-26T07:17:19.425Z,10.25
2019-06-26T07:17:43.915Z,15.28
2019-06-26T07:18:20.296Z,10.08
2019-06-26T07:18:56.970Z,11.28
2019-06-26T07:19:33.616Z,11.55
2019-06-26T07:20:11.203Z,9.58
2019-06-26T07:20:47.746Z,10.78
2019-06-26T07:21:24.893Z,10.38
2019-06-26T07:22:00.940Z,9.78
2019-06-26T07:22:37.852Z,11.00
2019-06-26T07:23:14.581Z,16.02
2019-06-26T07:23:51.040Z,11.20
2019-06-26T07:24:28.051Z,11.08
2019-06-26T07:25:05.040Z,8.98
2019-06-26T07:25:41.360Z,12.13
2019-06-26T07:26:17.970Z,11.55
2019-06-26T07:26:54.601Z,13.50
2019-06-26T07:27:30.638Z,9.50
2019-06-26T07:28:07.490Z,12.40
2019-06-26T07:28:44.483Z,10.65
2019-06-26T07:29:20.807Z,12.07
2019-06-26T07:29:57.414Z,8.38
2019-06-26T07:30:34.441Z,11.93
2019-06-26T07:31:10.859Z,11.12
2019-06-26T07:31:47.776Z,11.88
2019-06-26T07:32:25.043Z,12.60
2019-06-26T07:33:01.513Z,12.20
2019-06-26T07:33:38.436Z,13.13
2019-06-26T07:34:15.030Z,13.35
2019-06-26T07:34:51.412Z,9.68
2019-06-26T07:35:28.106Z,9.45
2019-06-26T07:36:04.721Z,8.55
2019-06-26T07:36:41.160Z,9.70
2019-06-26T07:37:17.878Z,12.47
2019-06-26T07:37:54.807Z,9.30
2019-06-26T07:38:31.160Z,8.48
2019-06-26T07:39:08.301Z,9.55
2019-06-26T07:39:44.924Z,9.75
2019-06-26T07:40:21.066Z,12.63
2019-06-26T07:40:57.673Z,11.20
2019-06-26T07:41:34.278Z,9.18
2019-06-26T07:42:10.302Z,11.80
2019-06-26T07:42:47.091Z,13.53
2019-06-26T07:43:24.059Z,11.70
2019-06-26T07:44:00.047Z,7.97
2019-06-26T07:44:36.979Z,9.40
2019-06-26T07:45:13.697Z,16.27
2019-06-26T07:45:49.700Z,11.20
2019-06-26T07:46:26.739Z,12.40
2019-06-26T07:47:03.356Z,14.00
2019-06-26T07:47:43.790Z,13.28
2019-06-26T07:48:18.606Z,9.98
2019-06-26T07:48:57.573Z,8.40
2019-06-26T07:49:33.504Z,14.00
2019-06-26T07:50:10.979Z,12.60
2019-06-26T07:50:47.600Z,9.83
2019-06-26T07:51:23.723Z,13.58
2019-06-26T07:52:00.420Z,11.88
2019-06-26T07:52:37.054Z,12.68
2019-06-26T07:53:13.203Z,10.48
2019-06-26T07:53:49.783Z,10.00
2019-06-26T07:54:27.460Z,13.80
2019-06-26T07:55:03.652Z,9.43
2019-06-26T07:55:40.662Z,10.38
2019-06-26T07:56:17.353Z,8.40
2019-06-26T07:56:53.373Z,9.43
2019-06-26T07:57:30.571Z,11.43
2019-06-26T07:58:07.198Z,12.15
2019-06-26T07:58:43.609Z,9.35
2019-06-26T07:59:20.196Z,9.00
2019-06-26T07:59:57.222Z,11.57
2019-06-26T08:00:33.385Z,9.65
2019-06-26T08:01:10.002Z,9.20
2019-06-26T08:01:46.662Z,10.35